createdAt,value
2019-05-29T00:00:56.799Z,1012.98
2019-05-29T00:01:56.813Z,1012.97
2019-05-29T00:02:56.779Z,1012.98
2019-05-29T00:03:56.760Z,1013.04
2019-05-29T00:04:56.753Z,1013.02
2019-05-29T00:05:56.739Z,1013.06
2019-05-29T00:06:56.756Z,1012.99
2019-05-29T00:07:56.719Z,1013.07
2019-05-29T00:08:56.706Z,1013.08
2019-05-29T00:09:56.700Z,1013.12
2019-05-29T00:10:56.687Z,1013.17
2019-05-29T00:11:56.703Z,1013.06
2019-05-29T00:12:56.697Z,1013.13
2019-05-29T00:13:56.686Z,1013.14
2019-05-29T00:14:56.642Z,1013.18
2019-05-29T00:15:56.629Z,1013.14
2019-05-29T00:16:56.636Z,1013.17
2019-05-29T00:17:56.637Z,1013.20
2019-05-29T00:18:58.381Z,1013.22
2019-05-29T00:19:56.598Z,1013.20
2019-05-29T00:20:56.584Z,1013.24
2019-05-29T00:21:56.567Z,1013.24
2019-05-29T00:22:56.583Z,1013.27
2019-05-29T00:23:56.544Z,1013.23
2019-05-29T00:24:56.543Z,1013.28
2019-05-29T00:25:56.523Z,1013.24
2019-05-29T00:26:56.525Z,1013.30
2019-05-29T00:27:56.524Z,1013.32
2019-05-29T00:28:56.490Z,1013.29
2019-05-29T00:29:56.483Z,1013.37
2019-05-29T00:30:56.510Z,1013.39
2019-05-29T00:31:56.453Z,1013.36
2019-05-29T00:32:56.470Z,1013.38
2019-05-29T00:33:56.468Z,1013.36
2019-05-29T00:34:56.424Z,1013.41
2019-05-29T00:35:56.413Z,1013.38
2019-05-29T00:36:56.423Z,1013.43
2019-05-29T00:37:56.420Z,1013.42
2019-05-29T00:38:56.380Z,1013.40
2019-05-29T00:39:56.372Z,1013.44
2019-05-29T00:40:56.359Z,1013.41
2019-05-29T00:41:56.347Z,1013.44
2019-05-29T00:42:56.369Z,1013.44
2019-05-29T00:43:56.359Z,1013.46
2019-05-29T00:44:56.322Z,1013.48
2019-05-29T00:45:56.308Z,1013.43
2019-05-29T00:46:56.293Z,1013.47
2019-05-29T00:47:56.353Z,1013.44
2019-05-29T00:48:56.289Z,1013.46
2019-05-29T00:49:56.292Z,1013.47
2019-05-29T00:50:56.253Z,1013.51
2019-05-29T00:51:56.243Z,1013.51
2019-05-29T00:52:56.234Z,1013.49
2019-05-29T00:53:56.245Z,1013.58
2019-05-29T00:54:56.226Z,1013.57
2019-05-29T00:55:56.200Z,1013.55
2019-05-29T00:56:56.192Z,1013.54
2019-05-29T00:57:56.176Z,1013.52
2019-05-29T00:58:56.191Z,1013.54
2019-05-29T00:59:56.174Z,1013.54
2019-05-29T01:00:56.148Z,1013.53
2019-05-29T01:01:56.144Z,1013.51
2019-05-29T01:02:56.161Z,1013.53
2019-05-29T01:03:56.144Z,1013.52
2019-05-29T01:04:56.105Z,1013.58
2019-05-29T01:05:56.086Z,1013.58
2019-05-29T01:06:56.077Z,1013.60
2019-05-29T01:07:56.083Z,1013.58
2019-05-29T01:08:56.057Z,1013.61
2019-05-29T01:09:56.073Z,1013.65
2019-05-29T01:10:56.034Z,1013.61
2019-05-29T01:11:56.024Z,1013.68
2019-05-29T01:12:56.029Z,1013.75
2019-05-29T01:13:56.005Z,1013.68
2019-05-29T01:14:56.015Z,1013.66
2019-05-29T01:15:55.984Z,1013.73
2019-05-29T01:16:55.971Z,1013.72
2019-05-29T01:17:55.965Z,1013.73
2019-05-29T01:18:55.956Z,1013.75
2019-05-29T01:19:55.966Z,1013.80
2019-05-29T01:20:55.927Z,1013.79
2019-05-29T01:21:55.915Z,1013.86
2019-05-29T01:22:55.905Z,1013.84
2019-05-29T01:23:55.893Z,1013.84
2019-05-29T01:24:55.911Z,1013.86
2019-05-29T01:25:55.876Z,1013.88
2019-05-29T01:26:55.869Z,1013.88
2019-05-29T01:27:55.850Z,1013.91
2019-05-29T01:28:55.842Z,1013.88
2019-05-29T01:29:55.859Z,1013.87
2019-05-29T01:30:55.829Z,1013.91
2019-05-29T01:31:55.809Z,1013.92
2019-05-29T01:32:55.807Z,1013.90
2019-05-29T01:33:55.787Z,1013.93
2019-05-29T01:34:55.803Z,1013.95
2019-05-29T01:35:55.801Z,1013.98
2019-05-29T01:36:55.761Z,1014.02
2019-05-29T01:37:55.748Z,1013.99
2019-05-29T01:38:55.731Z,1013.96
2019-05-29T01:39:55.756Z,1014.00
2019-05-29T01:40:55.718Z,1014.02
2019-05-29T01:41:55.700Z,1013.97
2019-05-29T01:42:55.694Z,1013.99
2019-05-29T01:43:55.688Z,1014.04
2019-05-29T01:45:07.029Z,1014.01
2019-05-29T01:45:56.659Z,1014.03
2019-05-29T01:46:55.662Z,1014.04
2019-05-29T01:47:55.638Z,1014.08
2019-05-29T01:48:55.627Z,1014.05
2019-05-29T01:49:55.645Z,1014.04
2019-05-29T01:50:55.615Z,1014.01
2019-05-29T01:51:55.592Z,1014.02
2019-05-29T01:52:55.582Z,1014.08
2019-05-29T01:53:55.573Z,1014.07
2019-05-29T01:54:55.593Z,1014.11
2019-05-29T01:55:55.576Z,1014.08
2019-05-29T01:56:55.544Z,1014.14
2019-05-29T01:57:55.530Z,1014.18
2019-05-29T01:58:55.521Z,1014.10
2019-05-29T01:59:55.507Z,1014.16
2019-05-29T02:00:55.524Z,1014.18
2019-05-29T02:01:55.483Z,1014.12
2019-05-29T02:02:55.474Z,1014.21
2019-05-29T02:03:55.464Z,1014.22
2019-05-29T02:04:55.458Z,1014.22
2019-05-29T02:05:55.473Z,1014.23
2019-05-29T02:06:55.450Z,1014.26
2019-05-29T02:07:55.419Z,1014.26
2019-05-29T02:08:55.410Z,1014.26
2019-05-29T02:09:55.398Z,1014.29
2019-05-29T02:10:55.419Z,1014.38
2019-05-29T02:11:55.378Z,1014.34
2019-05-29T02:12:55.365Z,1014.34
2019-05-29T02:13:55.359Z,1014.37
2019-05-29T02:14:55.362Z,1014.25
2019-05-29T02:15:55.359Z,1014.36
2019-05-29T02:16:55.322Z,1014.33
2019-05-29T02:17:55.325Z,1014.25
2019-05-29T02:18:55.304Z,1014.29
2019-05-29T02:19:55.290Z,1014.29
2019-05-29T02:20:55.314Z,1014.33
2019-05-29T02:21:55.272Z,1014.32
2019-05-29T02:22:55.258Z,1014.39
2019-05-29T02:23:55.264Z,1014.42
2019-05-29T02:24:55.237Z,1014.33
2019-05-29T02:25:55.233Z,1014.46
2019-05-29T02:26:55.240Z,1014.41
2019-05-29T02:27:55.208Z,1014.45
2019-05-29T02:28:55.197Z,1014.46
2019-05-29T02:29:55.190Z,1014.37
2019-05-29T02:30:55.198Z,1014.44
2019-05-29T02:31:55.192Z,1014.46
2019-05-29T02:32:55.152Z,1014.41
2019-05-29T02:33:55.161Z,1014.37
2019-05-29T02:34:55.139Z,1014.45
2019-05-29T02:35:55.134Z,1014.40
2019-05-29T02:36:55.135Z,1014.33
2019-05-29T02:37:55.100Z,1014.44
2019-05-29T02:38:55.094Z,1014.52
2019-05-29T02:39:55.076Z,1014.41
2019-05-29T02:40:55.063Z,1014.39
2019-05-29T02:41:55.090Z,1014.44
2019-05-29T02:42:55.042Z,1014.41
2019-05-29T02:43:55.035Z,1014.40
2019-05-29T02:44:55.026Z,1014.45
2019-05-29T02:45:55.345Z,1014.50
2019-05-29T02:46:55.028Z,1014.40
2019-05-29T02:47:55.000Z,1014.44
2019-05-29T02:48:54.979Z,1014.49
2019-05-29T02:49:54.967Z,1014.50
2019-05-29T02:50:54.956Z,1014.46
2019-05-29T02:51:54.972Z,1014.50
2019-05-29T02:52:54.935Z,1014.46
2019-05-29T02:53:54.934Z,1014.51
2019-05-29T02:54:54.915Z,1014.48
2019-05-29T02:55:54.902Z,1014.48
2019-05-29T02:56:54.924Z,1014.50
2019-05-29T02:57:54.886Z,1014.55
2019-05-29T02:58:54.875Z,1014.54
2019-05-29T02:59:54.865Z,1014.57
2019-05-29T03:00:54.863Z,1014.57
2019-05-29T03:01:54.842Z,1014.61
2019-05-29T03:02:54.858Z,1014.58
2019-05-29T03:03:54.819Z,1014.61
2019-05-29T03:04:54.805Z,1014.62
2019-05-29T03:05:54.810Z,1014.67
2019-05-29T03:06:54.785Z,1014.67
2019-05-29T03:07:54.803Z,1014.65
2019-05-29T03:08:54.772Z,1014.72
2019-05-29T03:09:54.763Z,1014.68
2019-05-29T03:10:54.743Z,1014.74
2019-05-29T03:11:54.735Z,1014.71
2019-05-29T03:12:54.747Z,1014.71
2019-05-29T03:13:54.707Z,1014.73
2019-05-29T03:14:54.698Z,1014.77
2019-05-29T03:16:09.326Z,1014.75
2019-05-29T03:16:55.681Z,1014.73
2019-05-29T03:17:54.689Z,1014.76
2019-05-29T03:18:54.685Z,1014.75
2019-05-29T03:19:54.651Z,1014.74
2019-05-29T03:20:54.632Z,1014.72
2019-05-29T03:21:54.623Z,1014.79
2019-05-29T03:22:54.642Z,1014.75
2019-05-29T03:23:54.612Z,1014.70
2019-05-29T03:24:54.590Z,1014.77
2019-05-29T03:25:54.591Z,1014.72
2019-05-29T03:26:54.568Z,1014.83
2019-05-29T03:27:54.584Z,1014.84
2019-05-29T03:28:54.549Z,1014.86
2019-05-29T03:29:54.541Z,1014.87
2019-05-29T03:30:54.526Z,1014.89
2019-05-29T03:31:54.528Z,1014.91
2019-05-29T03:32:54.530Z,1014.92
2019-05-29T03:33:54.499Z,1014.86
2019-05-29T03:34:54.485Z,1014.96
2019-05-29T03:35:54.474Z,1014.92
2019-05-29T03:36:54.468Z,1014.97
2019-05-29T03:37:58.450Z,1014.97
2019-05-29T03:38:54.442Z,1014.96
2019-05-29T03:39:54.434Z,1014.98
2019-05-29T03:40:54.419Z,1014.98
2019-05-29T03:41:54.411Z,1014.98
2019-05-29T03:42:54.478Z,1015.00
2019-05-29T03:43:54.427Z,1014.97
2019-05-29T03:44:54.378Z,1014.98
2019-05-29T03:45:54.374Z,1014.98
2019-05-29T03:46:54.353Z,1015.02
2019-05-29T03:47:54.344Z,1014.95
2019-05-29T03:48:54.360Z,1015.00
2019-05-29T03:49:54.327Z,1015.00
2019-05-29T03:50:54.312Z,1015.03
2019-05-29T03:51:54.306Z,1015.06
2019-05-29T03:52:54.294Z,1015.05
2019-05-29T03:53:54.307Z,1015.08
2019-05-29T03:54:54.272Z,1015.10
2019-05-29T03:55:54.276Z,1015.09
2019-05-29T03:56:54.247Z,1015.07
2019-05-29T03:57:54.241Z,1015.14
2019-05-29T03:58:54.249Z,1015.18
2019-05-29T03:59:54.213Z,1015.18
2019-05-29T04:00:54.203Z,1015.16
2019-05-29T04:01:54.202Z,1015.13
2019-05-29T04:02:54.186Z,1015.16
2019-05-29T04:03:54.213Z,1015.15
2019-05-29T04:04:54.171Z,1015.15
2019-05-29T04:05:54.153Z,1015.13
2019-05-29T04:06:54.139Z,1015.19
2019-05-29T04:07:54.137Z,1015.26
2019-05-29T04:08:54.160Z,1015.21
2019-05-29T04:09:54.121Z,1015.23
2019-05-29T04:10:54.110Z,1015.24
2019-05-29T04:11:54.085Z,1015.28
2019-05-29T04:12:54.076Z,1015.24
2019-05-29T04:13:54.103Z,1015.25
2019-05-29T04:14:54.052Z,1015.26
2019-05-29T04:15:54.038Z,1015.24
2019-05-29T04:16:59.475Z,1015.27
2019-05-29T04:17:55.019Z,1015.30
2019-05-29T04:18:54.042Z,1015.36
2019-05-29T04:19:54.022Z,1015.40
2019-05-29T04:20:53.994Z,1015.42
2019-05-29T04:21:53.979Z,1015.40
2019-05-29T04:22:53.966Z,1015.43
2019-05-29T04:23:53.954Z,1015.41
2019-05-29T04:24:53.972Z,1015.49
2019-05-29T04:25:53.942Z,1015.44
2019-05-29T04:26:53.928Z,1015.47
2019-05-29T04:27:53.912Z,1015.49
2019-05-29T04:28:53.901Z,1015.49
2019-05-29T04:29:53.916Z,1015.56
2019-05-29T04:30:53.882Z,1015.50
2019-05-29T04:31:53.869Z,1015.58
2019-05-29T04:32:53.873Z,1015.64
2019-05-29T04:33:53.849Z,1015.60
2019-05-29T04:34:53.879Z,1015.60
2019-05-29T04:35:53.824Z,1015.64
2019-05-29T04:36:53.817Z,1015.64
2019-05-29T04:37:53.804Z,1015.64
2019-05-29T04:38:53.808Z,1015.64
2019-05-29T04:39:53.810Z,1015.70
2019-05-29T04:40:53.774Z,1015.69
2019-05-29T04:41:53.772Z,1015.71
2019-05-29T04:42:53.764Z,1015.75
2019-05-29T04:43:57.074Z,1015.78
2019-05-29T04:44:53.776Z,1015.70
2019-05-29T04:45:53.715Z,1015.77
2019-05-29T04:47:09.390Z,1015.86
2019-05-29T04:47:54.696Z,1015.88
2019-05-29T04:48:53.685Z,1015.86
2019-05-29T04:49:53.677Z,1015.83
2019-05-29T04:50:53.707Z,1015.84
2019-05-29T04:51:53.653Z,1015.85
2019-05-29T04:52:53.654Z,1015.80
2019-05-29T04:53:53.631Z,1015.84
2019-05-29T04:54:53.624Z,1015.88
2019-05-29T04:55:53.642Z,1015.88
2019-05-29T04:56:53.602Z,1015.88
2019-05-29T04:57:53.595Z,1015.84
2019-05-29T04:58:53.576Z,1015.86
2019-05-29T04:59:53.606Z,1015.89
2019-05-29T05:00:59.281Z,1015.91
2019-05-29T05:01:54.544Z,1015.92
2019-05-29T05:02:53.530Z,1015.91
2019-05-29T05:03:53.530Z,1015.93
2019-05-29T05:04:53.512Z,1015.92
2019-05-29T05:05:53.533Z,1015.97
2019-05-29T05:06:53.490Z,1015.96
2019-05-29T05:07:53.477Z,1016.00
2019-05-29T05:08:53.466Z,1015.99
2019-05-29T05:09:53.462Z,1015.97
2019-05-29T05:10:53.474Z,1015.98
2019-05-29T05:11:53.435Z,1016.01
2019-05-29T05:12:53.436Z,1016.01
2019-05-29T05:13:53.412Z,1016.08
2019-05-29T05:14:53.403Z,1016.08
2019-05-29T05:15:53.424Z,1016.01
2019-05-29T05:16:53.385Z,1016.03
2019-05-29T05:17:53.374Z,1016.00
2019-05-29T05:18:53.358Z,1016.07
2019-05-29T05:19:53.351Z,1016.06
2019-05-29T05:20:53.363Z,1016.04
2019-05-29T05:21:53.334Z,1016.09
2019-05-29T05:22:53.315Z,1016.08
2019-05-29T05:23:53.306Z,1016.08
2019-05-29T05:24:53.295Z,1016.07
2019-05-29T05:25:53.309Z,1016.08
2019-05-29T05:26:53.272Z,1016.05
2019-05-29T05:27:53.270Z,1016.10
2019-05-29T05:28:53.303Z,1016.12
2019-05-29T05:29:53.245Z,1016.14
2019-05-29T05:30:53.265Z,1016.09
2019-05-29T05:31:53.224Z,1016.13
2019-05-29T05:32:53.208Z,1016.14
2019-05-29T05:33:53.202Z,1016.12
2019-05-29T05:34:53.201Z,1016.16
2019-05-29T05:35:53.176Z,1016.13
2019-05-29T05:36:53.191Z,1016.17
2019-05-29T05:37:53.153Z,1016.18
2019-05-29T05:38:53.147Z,1016.21
2019-05-29T05:39:53.135Z,1016.24
2019-05-29T05:40:53.127Z,1016.18
2019-05-29T05:41:53.148Z,1016.25
2019-05-29T05:42:53.105Z,1016.23
2019-05-29T05:43:53.089Z,1016.24
2019-05-29T05:44:53.084Z,1016.24
2019-05-29T05:45:53.066Z,1016.27
2019-05-29T05:46:53.086Z,1016.32
2019-05-29T05:47:57.229Z,1016.35
2019-05-29T05:48:53.041Z,1016.34
2019-05-29T05:49:53.026Z,1016.34
2019-05-29T05:50:53.013Z,1016.39
2019-05-29T05:51:53.048Z,1016.38
2019-05-29T05:52:53.004Z,1016.37
2019-05-29T05:53:52.989Z,1016.41
2019-05-29T05:54:52.972Z,1016.41
2019-05-29T05:55:52.966Z,1016.43
2019-05-29T05:56:53.796Z,1016.39
2019-05-29T05:57:53.037Z,1016.39
2019-05-29T05:58:52.970Z,1016.46
2019-05-29T05:59:52.916Z,1016.42
2019-05-29T06:00:52.910Z,1016.42
2019-05-29T06:01:52.896Z,1016.39
2019-05-29T06:02:52.926Z,1016.41
2019-05-29T06:03:52.871Z,1016.40
2019-05-29T06:04:52.862Z,1016.44
2019-05-29T06:05:52.856Z,1016.44
2019-05-29T06:06:52.843Z,1016.49
2019-05-29T06:07:52.860Z,1016.51
2019-05-29T06:08:52.830Z,1016.47
2019-05-29T06:09:52.812Z,1016.49
2019-05-29T06:10:52.811Z,1016.50
2019-05-29T06:11:52.789Z,1016.50
2019-05-29T06:12:52.802Z,1016.56
2019-05-29T06:13:52.769Z,1016.51
2019-05-29T06:14:52.757Z,1016.52
2019-05-29T06:15:52.754Z,1016.51
2019-05-29T06:16:52.736Z,1016.48
2019-05-29T06:18:10.416Z,1016.55
2019-05-29T06:18:53.720Z,1016.46
2019-05-29T06:19:52.732Z,1016.56
2019-05-29T06:20:52.705Z,1016.50
2019-05-29T06:21:52.685Z,1016.57
2019-05-29T06:22:52.701Z,1016.58
2019-05-29T06:23:52.671Z,1016.59
2019-05-29T06:24:52.648Z,1016.59
2019-05-29T06:25:52.663Z,1016.55
2019-05-29T06:26:52.628Z,1016.58
2019-05-29T06:27:52.639Z,1016.55
2019-05-29T06:28:52.604Z,1016.57
2019-05-29T06:29:52.593Z,1016.58
2019-05-29T06:30:52.592Z,1016.59
2019-05-29T06:31:52.575Z,1016.60
2019-05-29T06:32:52.611Z,1016.65
2019-05-29T06:33:52.572Z,1016.64
2019-05-29T06:34:52.544Z,1016.73
2019-05-29T06:35:52.529Z,1016.68
2019-05-29T06:36:52.535Z,1016.68
2019-05-29T06:37:52.509Z,1016.71
2019-05-29T06:38:52.538Z,1016.69
2019-05-29T06:39:52.492Z,1016.71
2019-05-29T06:40:52.483Z,1016.75
2019-05-29T06:41:52.467Z,1016.75
2019-05-29T06:42:52.475Z,1016.77
2019-05-29T06:43:52.475Z,1016.78
2019-05-29T06:44:52.575Z,1016.75
2019-05-29T06:45:52.431Z,1016.74
2019-05-29T06:46:52.416Z,1016.82
2019-05-29T06:47:52.405Z,1016.77
2019-05-29T06:48:59.538Z,1016.82
2019-05-29T06:49:53.385Z,1016.83
2019-05-29T06:50:52.839Z,1016.81
2019-05-29T06:51:52.362Z,1016.81
2019-05-29T06:52:52.347Z,1016.92
2019-05-29T06:53:52.368Z,1016.85
2019-05-29T06:54:52.327Z,1016.93
2019-05-29T06:55:54.672Z,1016.90
2019-05-29T06:56:52.307Z,1016.89
2019-05-29T06:57:52.294Z,1016.87
2019-05-29T06:58:52.311Z,1016.95
2019-05-29T06:59:52.269Z,1016.97
2019-05-29T07:00:52.268Z,1016.95
2019-05-29T07:01:52.255Z,1016.92
2019-05-29T07:02:52.240Z,1016.95
2019-05-29T07:04:07.886Z,1016.96
2019-05-29T07:04:53.217Z,1017.01
2019-05-29T07:05:52.993Z,1016.98
2019-05-29T07:06:52.199Z,1016.94
2019-05-29T07:07:52.181Z,1017.00
2019-05-29T07:08:52.201Z,1016.94
2019-05-29T07:09:52.194Z,1017.00
2019-05-29T07:10:52.159Z,1017.00
2019-05-29T07:11:52.141Z,1017.01
2019-05-29T07:12:52.135Z,1016.98
2019-05-29T07:13:52.164Z,1017.01
2019-05-29T07:14:52.114Z,1017.04
2019-05-29T07:15:52.103Z,1017.09
2019-05-29T07:16:56.059Z,1017.13
2019-05-29T07:17:52.085Z,1017.14
2019-05-29T07:19:24.084Z,1017.13
2019-05-29T07:20:02.854Z,1017.16
2019-05-29T07:20:53.046Z,1017.19
2019-05-29T07:21:52.039Z,1017.15
2019-05-29T07:22:52.023Z,1017.16
2019-05-29T07:23:52.014Z,1017.20
2019-05-29T07:24:52.031Z,1017.22
2019-05-29T07:25:51.999Z,1017.22
2019-05-29T07:26:51.980Z,1017.18
2019-05-29T07:27:51.986Z,1017.28
2019-05-29T07:29:07.054Z,1017.26
2019-05-29T07:29:52.981Z,1017.25
2019-05-29T07:31:00.247Z,1017.23
2019-05-29T07:31:52.928Z,1017.26
2019-05-29T07:32:58.689Z,1017.30
2019-05-29T07:33:52.914Z,1017.31
2019-05-29T07:35:03.001Z,1017.25
2019-05-29T07:35:52.887Z,1017.29
2019-05-29T07:36:51.870Z,1017.26
2019-05-29T07:37:51.868Z,1017.32
2019-05-29T07:39:02.620Z,1017.31
2019-05-29T07:39:52.862Z,1017.33
2019-05-29T07:40:51.871Z,1017.32
2019-05-29T07:41:51.819Z,1017.33
2019-05-29T07:42:56.299Z,1017.36
2019-05-29T07:43:52.796Z,1017.33
2019-05-29T07:44:51.812Z,1017.27
2019-05-29T07:45:51.812Z,1017.31
2019-05-29T07:46:51.770Z,1017.32
2019-05-29T07:47:51.755Z,1017.38
2019-05-29T07:48:51.762Z,1017.29
2019-05-29T07:49:51.766Z,1017.29
2019-05-29T07:51:06.342Z,1017.31
2019-05-29T07:51:52.742Z,1017.25
2019-05-29T07:52:52.144Z,1017.28
2019-05-29T07:53:51.698Z,1017.35
2019-05-29T07:54:51.788Z,1017.31
2019-05-29T07:55:51.698Z,1017.33
2019-05-29T07:56:51.654Z,1017.33
2019-05-29T07:57:51.645Z,1017.28
2019-05-29T07:59:01.686Z,1017.32
2019-05-29T07:59:52.628Z,1017.34
2019-05-29T08:01:09.647Z,1017.31
2019-05-29T08:01:52.602Z,1017.34
2019-05-29T08:02:51.602Z,1017.31
2019-05-29T08:03:51.580Z,1017.29
2019-05-29T08:04:51.575Z,1017.27
2019-05-29T08:05:53.398Z,1017.26
2019-05-29T08:06:54.518Z,1017.29
2019-05-29T08:07:51.539Z,1017.23
2019-05-29T08:08:51.559Z,1017.31
2019-05-29T08:09:51.521Z,1017.29
2019-05-29T08:10:51.539Z,1017.27
2019-05-29T08:11:51.501Z,1017.27
2019-05-29T08:12:55.583Z,1017.27
2019-05-29T08:13:51.471Z,1017.30
2019-05-29T08:14:51.481Z,1017.33
2019-05-29T08:16:01.881Z,1017.35
2019-05-29T08:16:52.457Z,1017.31
2019-05-29T08:17:51.439Z,1017.31
2019-05-29T08:18:53.059Z,1017.29
2019-05-29T08:20:05.422Z,1017.25
2019-05-29T08:20:52.425Z,1017.29
2019-05-29T08:21:51.394Z,1017.33
2019-05-29T08:22:51.583Z,1017.34
2019-05-29T08:23:51.371Z,1017.28
2019-05-29T08:24:51.365Z,1017.29
2019-05-29T08:25:51.853Z,1017.34
2019-05-29T08:26:51.334Z,1017.31
2019-05-29T08:27:51.317Z,1017.32
2019-05-29T08:28:51.407Z,1017.35
2019-05-29T08:29:51.299Z,1017.32
2019-05-29T08:30:55.724Z,1017.37
2019-05-29T08:31:52.315Z,1017.40
2019-05-29T08:32:51.413Z,1017.33
2019-05-29T08:33:51.489Z,1017.37
2019-05-29T08:34:51.349Z,1017.34
2019-05-29T08:35:59.389Z,1017.32
2019-05-29T08:37:05.865Z,1017.32
2019-05-29T08:37:52.212Z,1017.29
2019-05-29T08:38:51.698Z,1017.27
2019-05-29T08:39:51.680Z,1017.34
2019-05-29T08:40:51.494Z,1017.32
2019-05-29T08:42:19.557Z,1017.28
2019-05-29T08:42:52.164Z,1017.30
2019-05-29T08:43:52.571Z,1017.29
2019-05-29T08:44:51.662Z,1017.26
2019-05-29T08:45:52.685Z,1017.31
2019-05-29T08:47:08.479Z,1017.30
2019-05-29T08:47:52.106Z,1017.36
2019-05-29T08:48:52.232Z,1017.34
2019-05-29T08:49:54.332Z,1017.38
2019-05-29T08:50:52.006Z,1017.37
2019-05-29T08:51:52.331Z,1017.35
2019-05-29T08:52:52.210Z,1017.39
2019-05-29T08:53:53.423Z,1017.39
2019-05-29T08:54:52.208Z,1017.38
2019-05-29T08:55:52.639Z,1017.35
2019-05-29T08:56:51.031Z,1017.34
2019-05-29T08:57:51.000Z,1017.35
2019-05-29T08:58:50.997Z,1017.33
2019-05-29T08:59:50.976Z,1017.34
2019-05-29T09:00:53.929Z,1017.38
2019-05-29T09:01:52.953Z,1017.39
2019-05-29T09:02:51.211Z,1017.33
2019-05-29T09:03:51.322Z,1017.37
2019-05-29T09:04:53.020Z,1017.37
2019-05-29T09:06:06.828Z,1017.40
2019-05-29T09:06:53.375Z,1017.35
2019-05-29T09:07:52.190Z,1017.36
2019-05-29T09:08:54.090Z,1017.33
2019-05-29T09:09:51.273Z,1017.30
2019-05-29T09:10:51.905Z,1017.34
2019-05-29T09:11:51.852Z,1017.34
2019-05-29T09:13:01.805Z,1017.34
2019-05-29T09:13:51.825Z,1017.31
2019-05-29T09:14:50.848Z,1017.36
2019-05-29T09:15:50.805Z,1017.39
2019-05-29T09:16:50.825Z,1017.34
2019-05-29T09:17:50.783Z,1017.34
2019-05-29T09:18:50.798Z,1017.40
2019-05-29T09:19:50.757Z,1017.33
2019-05-29T09:21:02.684Z,1017.29
2019-05-29T09:21:51.741Z,1017.36
2019-05-29T09:22:50.768Z,1017.34
2019-05-29T09:23:50.721Z,1017.33
2019-05-29T09:24:50.706Z,1017.35
2019-05-29T09:25:50.693Z,1017.37
2019-05-29T09:26:50.684Z,1017.35
2019-05-29T09:27:50.717Z,1017.33
2019-05-29T09:28:50.662Z,1017.38
2019-05-29T09:29:50.654Z,1017.37
2019-05-29T09:30:50.662Z,1017.38
2019-05-29T09:31:50.630Z,1017.38
2019-05-29T09:32:52.820Z,1017.37
2019-05-29T09:33:50.605Z,1017.33
2019-05-29T09:34:50.597Z,1017.38
2019-05-29T09:35:50.589Z,1017.32
2019-05-29T09:36:50.688Z,1017.34
2019-05-29T09:37:50.599Z,1017.40
2019-05-29T09:38:50.858Z,1017.40
2019-05-29T09:39:50.541Z,1017.36
2019-05-29T09:40:52.697Z,1017.38
2019-05-29T09:41:50.518Z,1017.38
2019-05-29T09:42:50.517Z,1017.40
2019-05-29T09:43:59.346Z,1017.39
2019-05-29T09:44:51.485Z,1017.40
2019-05-29T09:45:50.476Z,1017.39
2019-05-29T09:46:50.476Z,1017.34
2019-05-29T09:47:50.455Z,1017.39
2019-05-29T09:48:50.490Z,1017.35
2019-05-29T09:49:50.453Z,1017.32
2019-05-29T09:50:50.929Z,1017.32
2019-05-29T09:51:52.475Z,1017.29
2019-05-29T09:52:50.432Z,1017.28
2019-05-29T09:53:50.441Z,1017.23
2019-05-29T09:54:50.403Z,1017.25
2019-05-29T09:55:50.377Z,1017.24
2019-05-29T09:56:50.361Z,1017.24
2019-05-29T09:57:50.346Z,1017.31
2019-05-29T09:58:50.373Z,1017.32
2019-05-29T09:59:50.330Z,1017.33
2019-05-29T10:01:09.769Z,1017.35
2019-05-29T10:01:51.305Z,1017.32
2019-05-29T10:02:50.292Z,1017.37
2019-05-29T10:03:50.306Z,1017.34
2019-05-29T10:04:50.276Z,1017.30
2019-05-29T10:05:50.266Z,1017.31
2019-05-29T10:06:50.254Z,1017.33
2019-05-29T10:07:50.242Z,1017.30
2019-05-29T10:08:50.278Z,1017.30
2019-05-29T10:09:50.224Z,1017.36
2019-05-29T10:10:50.323Z,1017.33
2019-05-29T10:11:50.212Z,1017.36
2019-05-29T10:12:50.187Z,1017.35
2019-05-29T10:13:50.206Z,1017.36
2019-05-29T10:14:51.430Z,1017.35
2019-05-29T10:15:50.155Z,1017.44
2019-05-29T10:16:50.163Z,1017.39
2019-05-29T10:17:50.131Z,1017.41
2019-05-29T10:18:50.155Z,1017.41
2019-05-29T10:19:50.119Z,1017.43
2019-05-29T10:20:50.104Z,1017.47
2019-05-29T10:21:50.091Z,1017.38
2019-05-29T10:22:50.078Z,1017.35
2019-05-29T10:23:50.097Z,1017.39
2019-05-29T10:24:50.088Z,1017.31
2019-05-29T10:25:50.205Z,1017.31
2019-05-29T10:26:50.039Z,1017.27
2019-05-29T10:27:50.025Z,1017.27
2019-05-29T10:29:06.762Z,1017.28
2019-05-29T10:29:52.849Z,1017.27
2019-05-29T10:30:50.358Z,1017.31
2019-05-29T10:31:51.248Z,1017.30
2019-05-29T10:32:50.178Z,1017.28
2019-05-29T10:33:50.300Z,1017.29
2019-05-29T10:34:50.590Z,1017.32
2019-05-29T10:35:53.305Z,1017.29
2019-05-29T10:36:54.341Z,1017.33
2019-05-29T10:37:50.678Z,1017.33
2019-05-29T10:38:50.727Z,1017.33
2019-05-29T10:39:50.980Z,1017.30
2019-05-29T10:41:04.604Z,1017.28
2019-05-29T10:41:51.033Z,1017.30
2019-05-29T10:42:51.220Z,1017.28
2019-05-29T10:43:51.190Z,1017.27
2019-05-29T10:44:49.874Z,1017.30
2019-05-29T10:45:50.008Z,1017.37
2019-05-29T10:46:51.889Z,1017.32
2019-05-29T10:47:49.937Z,1017.32
2019-05-29T10:48:52.804Z,1017.30
2019-05-29T10:49:49.840Z,1017.24
2019-05-29T10:50:51.990Z,1017.30
2019-05-29T10:52:05.650Z,1017.26
2019-05-29T10:52:51.031Z,1017.28
2019-05-29T10:53:52.140Z,1017.26
2019-05-29T10:54:50.302Z,1017.17
2019-05-29T10:55:50.531Z,1017.26
2019-05-29T10:56:50.839Z,1017.30
2019-05-29T10:57:50.911Z,1017.23
2019-05-29T10:58:56.423Z,1017.28
2019-05-29T10:59:50.884Z,1017.24
2019-05-29T11:00:51.139Z,1017.19
2019-05-29T11:01:49.664Z,1017.26
2019-05-29T11:02:50.110Z,1017.27
2019-05-29T11:03:49.635Z,1017.26
2019-05-29T11:04:53.736Z,1017.27
2019-05-29T11:05:51.619Z,1017.21
2019-05-29T11:06:50.190Z,1017.22
2019-05-29T11:07:49.720Z,1017.24
2019-05-29T11:08:50.053Z,1017.22
2019-05-29T11:09:50.177Z,1017.23
2019-05-29T11:10:49.948Z,1017.21
2019-05-29T11:11:50.678Z,1017.19
2019-05-29T11:12:50.629Z,1017.14
2019-05-29T11:13:50.557Z,1017.08
2019-05-29T11:14:50.736Z,1017.19
2019-05-29T11:15:50.724Z,1017.17
2019-05-29T11:16:50.857Z,1017.21
2019-05-29T11:17:49.489Z,1017.26
2019-05-29T11:18:49.481Z,1017.21
2019-05-29T11:19:49.471Z,1017.22
2019-05-29T11:20:49.506Z,1017.23
2019-05-29T11:21:49.804Z,1017.23
2019-05-29T11:22:49.586Z,1017.16
2019-05-29T11:23:49.872Z,1017.18
2019-05-29T11:24:50.065Z,1017.17
2019-05-29T11:25:49.902Z,1017.23
2019-05-29T11:26:50.334Z,1017.19
2019-05-29T11:27:50.380Z,1017.22
2019-05-29T11:28:50.313Z,1017.29
2019-05-29T11:29:50.516Z,1017.18
2019-05-29T11:30:51.576Z,1017.11
2019-05-29T11:31:50.356Z,1017.10
2019-05-29T11:32:50.863Z,1017.13
2019-05-29T11:33:50.553Z,1017.09
2019-05-29T11:34:49.302Z,1017.09
2019-05-29T11:36:03.215Z,1017.06
2019-05-29T11:36:50.323Z,1017.05
2019-05-29T11:37:50.399Z,1017.05
2019-05-29T11:38:50.401Z,1017.11
2019-05-29T11:39:50.390Z,1017.09
2019-05-29T11:40:58.101Z,1017.07
2019-05-29T11:41:50.662Z,1017.11
2019-05-29T11:42:50.684Z,1017.08
2019-05-29T11:43:49.510Z,1017.09
2019-05-29T11:44:49.198Z,1017.10
2019-05-29T11:45:49.197Z,1017.15
2019-05-29T11:46:50.152Z,1017.18
2019-05-29T11:47:49.177Z,1017.10
2019-05-29T11:48:49.159Z,1017.12
2019-05-29T11:49:49.142Z,1017.22
2019-05-29T11:50:50.025Z,1017.14
2019-05-29T11:51:49.158Z,1017.20
2019-05-29T11:52:50.199Z,1017.18
2019-05-29T11:53:49.107Z,1017.17
2019-05-29T11:54:52.340Z,1017.15
2019-05-29T11:55:52.275Z,1017.19
2019-05-29T11:56:49.108Z,1017.12
2019-05-29T11:57:49.066Z,1017.14
2019-05-29T11:58:49.054Z,1017.09
2019-05-29T11:59:49.040Z,1017.08
2019-05-29T12:00:49.032Z,1017.09
2019-05-29T12:01:50.846Z,1017.08
2019-05-29T12:02:49.007Z,1017.08
2019-05-29T12:04:13.452Z,1017.05
2019-05-29T12:04:51.045Z,1017.07
2019-05-29T12:05:48.972Z,1017.01